createdAt,value
2017-08-30T00:01:23.910Z,19.20
2017-08-30T00:03:52.190Z,19.20
2017-08-30T00:06:20.467Z,19.20
2017-08-30T00:08:48.760Z,19.10
2017-08-30T00:11:18.035Z,19.10
2017-08-30T00:13:46.310Z,19.10
2017-08-30T00:16:14.592Z,19.00
2017-08-30T00:18:42.876Z,19.00
2017-08-30T00:21:11.150Z,19.00
2017-08-30T00:23:39.449Z,19.00
2017-08-30T00:26:20.593Z,18.90
2017-08-30T00:28:48.992Z,18.90
2017-08-30T00:31:17.347Z,18.80
2017-08-30T00:33:46.427Z,18.70
2017-08-30T00:36:14.803Z,18.70
2017-08-30T00:38:43.052Z,18.80
2017-08-30T00:41:11.316Z,18.70
2017-08-30T00:43:39.657Z,18.70
2017-08-30T00:46:08.025Z,18.60
2017-08-30T00:48:36.299Z,18.60
2017-08-30T00:51:04.600Z,18.60
2017-08-30T00:53:32.976Z,18.60
2017-08-30T00:56:01.242Z,18.60
2017-08-30T00:58:29.551Z,18.60
2017-08-30T01:00:58.582Z,18.50
2017-08-30T01:03:26.867Z,18.50
2017-08-30T01:05:55.273Z,18.50
2017-08-30T01:08:23.673Z,18.50
2017-08-30T01:10:51.950Z,18.50
2017-08-30T01:13:20.306Z,18.50
2017-08-30T01:15:48.672Z,18.40
2017-08-30T01:18:16.969Z,18.40
2017-08-30T01:20:45.364Z,18.40
2017-08-30T01:23:13.720Z,18.30
2017-08-30T01:25:42.007Z,18.40
2017-08-30T01:28:10.291Z,18.40
2017-08-30T01:30:38.547Z,18.40
2017-08-30T01:33:06.812Z,18.40
2017-08-30T01:35:35.195Z,18.40
2017-08-30T01:38:03.493Z,18.30
2017-08-30T01:40:31.867Z,18.20
2017-08-30T01:43:00.243Z,18.20
2017-08-30T01:45:28.515Z,18.20
2017-08-30T01:47:56.770Z,18.20
2017-08-30T01:50:25.070Z,18.10
2017-08-30T01:52:53.336Z,18.10
2017-08-30T01:55:21.620Z,18.10
2017-08-30T01:57:49.940Z,18.00
2017-08-30T02:00:18.200Z,18.00
2017-08-30T02:02:47.277Z,17.90
2017-08-30T02:05:15.567Z,17.90
2017-08-30T02:07:43.833Z,17.90
2017-08-30T02:10:12.146Z,17.80
2017-08-30T02:12:41.234Z,17.80
2017-08-30T02:15:10.274Z,17.80
2017-08-30T02:17:38.559Z,17.70
2017-08-30T02:20:06.953Z,17.80
2017-08-30T02:22:35.246Z,17.80
2017-08-30T02:25:03.506Z,17.80
2017-08-30T02:27:31.801Z,17.80
2017-08-30T02:30:00.175Z,17.70
2017-08-30T02:32:28.455Z,17.70
2017-08-30T02:34:56.819Z,17.60
2017-08-30T02:37:25.086Z,17.60
2017-08-30T02:39:53.386Z,17.60
2017-08-30T02:42:21.666Z,17.60
2017-08-30T02:44:49.935Z,17.60
2017-08-30T02:47:18.302Z,17.60
2017-08-30T02:49:46.644Z,17.50
2017-08-30T02:52:14.911Z,17.50
2017-08-30T02:54:43.231Z,17.50
2017-08-30T02:57:11.625Z,17.40
2017-08-30T02:59:39.923Z,17.40
2017-08-30T03:02:08.164Z,17.40
2017-08-30T03:04:36.464Z,17.40
2017-08-30T03:07:04.735Z,17.40
2017-08-30T03:09:33.001Z,17.40
2017-08-30T03:12:01.388Z,17.30
2017-08-30T03:14:29.769Z,17.30
2017-08-30T03:16:58.054Z,17.40
2017-08-30T03:19:26.342Z,17.30
2017-08-30T03:21:54.632Z,17.30
2017-08-30T03:24:23.705Z,17.20
2017-08-30T03:26:52.176Z,17.20
2017-08-30T03:29:20.457Z,17.20
2017-08-30T03:31:48.733Z,17.20
2017-08-30T03:34:17.102Z,17.20
2017-08-30T03:36:45.395Z,17.10
2017-08-30T03:39:13.667Z,17.10
2017-08-30T03:41:41.956Z,17.10
2017-08-30T03:44:10.315Z,17.10
2017-08-30T03:46:38.592Z,17.00
2017-08-30T03:49:06.973Z,17.00
2017-08-30T03:51:35.246Z,17.00
2017-08-30T03:54:03.508Z,17.00
2017-08-30T03:56:31.856Z,17.00
2017-08-30T03:59:00.284Z,17.00
2017-08-30T04:01:28.554Z,17.00
2017-08-30T04:03:56.827Z,17.00
2017-08-30T04:06:25.096Z,17.10
2017-08-30T04:08:53.395Z,17.10
2017-08-30T04:11:21.672Z,17.10
2017-08-30T04:13:50.049Z,17.10
2017-08-30T04:16:18.326Z,17.00
2017-08-30T04:18:46.709Z,17.00
2017-08-30T04:21:14.975Z,17.00
2017-08-30T04:23:43.283Z,17.00
2017-08-30T04:26:11.561Z,17.00
2017-08-30T04:28:40.625Z,17.00
2017-08-30T04:31:08.895Z,17.00
2017-08-30T04:33:37.281Z,17.00
2017-08-30T04:36:05.530Z,17.00
2017-08-30T04:38:33.795Z,16.90
2017-08-30T04:41:02.120Z,17.00
2017-08-30T04:43:30.387Z,17.00
2017-08-30T04:45:58.668Z,17.00
2017-08-30T04:48:26.964Z,17.00
2017-08-30T04:50:55.247Z,17.00
2017-08-30T04:53:23.609Z,17.10
2017-08-30T04:55:51.986Z,17.10
2017-08-30T04:58:20.359Z,17.20
2017-08-30T05:00:48.636Z,17.30
2017-08-30T05:03:17.038Z,17.30
2017-08-30T05:05:45.399Z,17.30
2017-08-30T05:08:13.746Z,17.30
2017-08-30T05:10:42.107Z,17.30
2017-08-30T05:13:10.399Z,17.30
2017-08-30T05:15:38.757Z,17.30
2017-08-30T05:18:07.140Z,17.40
2017-08-30T05:20:35.413Z,17.50
2017-08-30T05:23:03.775Z,17.50
2017-08-30T05:25:32.127Z,17.50
2017-08-30T05:28:01.179Z,17.60
2017-08-30T05:30:29.577Z,17.60
2017-08-30T05:32:57.871Z,17.60
2017-08-30T05:35:26.226Z,17.60
2017-08-30T05:37:54.521Z,17.70
2017-08-30T05:40:22.834Z,17.70
2017-08-30T05:42:51.101Z,17.70
2017-08-30T05:45:20.168Z,17.70
2017-08-30T05:47:48.438Z,17.70
2017-08-30T05:50:16.708Z,17.80
2017-08-30T05:52:45.012Z,17.80
2017-08-30T05:55:13.359Z,17.80
2017-08-30T05:57:41.645Z,17.80
2017-08-30T06:00:09.953Z,17.90
2017-08-30T06:02:38.241Z,18.00
2017-08-30T06:05:06.648Z,18.10
2017-08-30T06:07:34.943Z,18.10
2017-08-30T06:10:03.287Z,18.20
2017-08-30T06:12:31.771Z,18.30
2017-08-30T06:15:00.128Z,18.30
2017-08-30T06:17:28.405Z,18.40
2017-08-30T06:19:57.431Z,18.40
2017-08-30T06:22:25.831Z,18.50
2017-08-30T06:24:54.093Z,18.60
2017-08-30T06:27:22.493Z,18.70
2017-08-30T06:29:50.857Z,18.60
2017-08-30T06:32:19.153Z,18.70
2017-08-30T06:34:47.513Z,18.80
2017-08-30T06:37:15.759Z,18.90
2017-08-30T06:42:18.601Z,19.10
2017-08-30T06:44:46.987Z,19.10
2017-08-30T06:47:15.271Z,19.20
2017-08-30T06:49:43.537Z,19.40
2017-08-30T06:52:11.822Z,19.40
2017-08-30T06:54:40.091Z,19.50
2017-08-30T06:57:08.457Z,19.60
2017-08-30T06:59:36.724Z,19.70
2017-08-30T07:02:05.039Z,19.80
2017-08-30T07:04:33.332Z,19.90
2017-08-30T07:07:01.610Z,20.00
2017-08-30T07:09:29.917Z,20.10
2017-08-30T07:11:58.185Z,20.20
2017-08-30T07:14:26.451Z,20.40
2017-08-30T07:16:54.781Z,20.40
2017-08-30T07:19:23.069Z,20.60
2017-08-30T07:21:51.407Z,20.70
2017-08-30T07:24:19.654Z,20.80
2017-08-30T07:26:47.993Z,20.90
2017-08-30T07:29:16.379Z,21.00
2017-08-30T07:31:44.635Z,21.10
2017-08-30T07:34:13.028Z,21.20
2017-08-30T07:36:41.287Z,21.30
2017-08-30T07:39:09.555Z,21.50
2017-08-30T07:41:37.924Z,21.60
2017-08-30T07:44:06.193Z,21.70
2017-08-30T07:46:34.523Z,21.70
2017-08-30T07:49:02.929Z,21.90
2017-08-30T07:51:31.200Z,22.00
2017-08-30T07:53:59.549Z,22.00
2017-08-30T07:56:27.827Z,22.20
2017-08-30T07:58:56.129Z,22.20
2017-08-30T08:01:24.393Z,22.40
2017-08-30T08:03:52.677Z,22.60
2017-08-30T08:06:20.975Z,22.70
2017-08-30T08:08:49.231Z,22.90
2017-08-30T08:11:17.531Z,22.90
2017-08-30T08:13:45.865Z,23.00
2017-08-30T08:16:14.138Z,23.10
2017-08-30T08:18:42.410Z,23.30
2017-08-30T08:21:10.684Z,23.40
2017-08-30T08:23:38.970Z,23.50
2017-08-30T08:26:07.247Z,23.60
2017-08-30T08:28:35.509Z,23.80
2017-08-30T08:31:03.817Z,23.80
2017-08-30T08:33:32.093Z,23.80
2017-08-30T08:36:00.455Z,24.00
2017-08-30T08:38:28.837Z,24.20
2017-08-30T08:40:57.093Z,24.20
2017-08-30T08:43:25.402Z,24.20
2017-08-30T08:45:53.682Z,24.40
2017-08-30T08:48:21.965Z,24.30
2017-08-30T08:50:50.223Z,24.40
2017-08-30T08:53:18.603Z,24.50
2017-08-30T08:55:46.867Z,24.70
2017-08-30T08:58:15.131Z,24.90
2017-08-30T09:00:43.397Z,24.90
2017-08-30T09:03:11.711Z,25.00
2017-08-30T09:05:39.973Z,25.10
2017-08-30T09:08:08.248Z,25.20
2017-08-30T09:10:36.537Z,25.20
2017-08-30T09:13:04.802Z,25.30
2017-08-30T09:15:33.078Z,25.30
2017-08-30T09:18:01.375Z,25.40
2017-08-30T09:20:29.748Z,25.50
2017-08-30T09:22:57.997Z,25.60
2017-08-30T09:25:26.297Z,25.70
2017-08-30T09:27:54.571Z,25.80
2017-08-30T09:30:22.852Z,25.90
2017-08-30T09:32:51.111Z,25.90
2017-08-30T09:35:19.406Z,26.00
2017-08-30T09:37:47.685Z,26.20
2017-08-30T09:40:15.957Z,26.30
2017-08-30T09:42:44.367Z,26.50
2017-08-30T09:45:12.711Z,26.60
2017-08-30T09:47:41.095Z,26.60
2017-08-30T09:50:09.358Z,26.70
2017-08-30T09:52:37.646Z,26.80
2017-08-30T09:55:05.923Z,27.00
2017-08-30T09:57:34.233Z,27.00
2017-08-30T10:00:02.590Z,26.90
2017-08-30T10:02:30.867Z,27.00
2017-08-30T10:04:59.259Z,27.10
2017-08-30T10:07:27.647Z,27.20
2017-08-30T10:09:56.019Z,27.20
2017-08-30T10:12:25.068Z,27.30
2017-08-30T10:14:53.355Z,27.30
2017-08-30T10:17:21.635Z,27.40
2017-08-30T10:19:49.918Z,27.60
2017-08-30T10:22:18.229Z,27.60
2017-08-30T10:24:46.549Z,27.80
2017-08-30T10:27:14.879Z,27.80
2017-08-30T10:29:43.243Z,28.00
2017-08-30T10:32:11.623Z,28.10
2017-08-30T10:34:39.875Z,28.20
2017-08-30T10:37:08.202Z,28.10
2017-08-30T10:39:36.577Z,28.20
2017-08-30T10:42:04.835Z,28.30
2017-08-30T10:44:33.115Z,28.40
2017-08-30T10:47:01.501Z,28.60
2017-08-30T10:49:29.777Z,28.60
2017-08-30T10:51:58.169Z,28.80
2017-08-30T10:54:26.526Z,28.90
2017-08-30T10:56:54.909Z,28.90
2017-08-30T10:59:23.195Z,29.00
2017-08-30T11:01:51.574Z,29.10
2017-08-30T11:04:19.941Z,29.20
2017-08-30T11:06:48.219Z,29.30
2017-08-30T11:09:16.503Z,29.30
2017-08-30T11:11:44.791Z,29.40
2017-08-30T11:14:13.063Z,29.40
2017-08-30T11:16:41.424Z,29.40
2017-08-30T11:19:09.802Z,29.40
2017-08-30T11:21:38.065Z,29.30
2017-08-30T11:24:06.353Z,29.40
2017-08-30T11:26:34.604Z,29.50
2017-08-30T11:29:03.860Z,29.60
2017-08-30T11:31:32.121Z,29.80
2017-08-30T11:34:00.506Z,29.90
2017-08-30T11:36:28.801Z,29.90
2017-08-30T11:38:57.053Z,30.10
2017-08-30T11:41:25.439Z,30.10
2017-08-30T11:43:53.684Z,30.20
2017-08-30T11:46:21.982Z,30.20
2017-08-30T11:48:50.273Z,30.40
2017-08-30T11:51:18.649Z,30.50
2017-08-30T11:53:46.896Z,30.50
2017-08-30T11:56:15.202Z,30.60
2017-08-30T11:58:43.461Z,30.60
2017-08-30T12:01:11.789Z,30.70
2017-08-30T12:03:40.049Z,30.70
2017-08-30T12:06:08.403Z,30.80
2017-08-30T12:08:36.673Z,30.90
2017-08-30T12:11:05.042Z,31.10
2017-08-30T12:13:33.439Z,31.00
2017-08-30T12:16:01.702Z,31.00
2017-08-30T12:18:29.980Z,31.20
2017-08-30T12:20:58.249Z,31.40
2017-08-30T12:23:26.641Z,31.40
2017-08-30T12:25:54.903Z,31.40
2017-08-30T12:28:23.289Z,31.50
2017-08-30T12:30:51.656Z,31.50
2017-08-30T12:33:20.053Z,31.50
2017-08-30T12:35:48.332Z,31.50
2017-08-30T12:38:22.403Z,31.60
2017-08-30T12:40:50.718Z,31.60
2017-08-30T12:43:19.088Z,31.80
2017-08-30T12:45:47.342Z,31.90
2017-08-30T12:48:15.605Z,32.20
2017-08-30T12:50:43.935Z,32.50
2017-08-30T12:53:12.502Z,32.60
2017-08-30T12:55:40.899Z,32.60
2017-08-30T12:58:09.276Z,33.00
2017-08-30T13:00:37.541Z,33.10
2017-08-30T13:03:05.801Z,33.30
2017-08-30T13:05:34.204Z,33.20
2017-08-30T13:08:02.456Z,34.00
2017-08-30T13:10:30.766Z,34.50
2017-08-30T13:12:59.033Z,34.90
2017-08-30T13:15:27.325Z,35.20
2017-08-30T13:17:55.687Z,35.70
2017-08-30T13:20:24.074Z,36.20
2017-08-30T13:22:52.394Z,36.40
2017-08-30T13:25:20.722Z,36.20
2017-08-30T13:27:49.096Z,36.50
2017-08-30T13:30:17.364Z,36.00
2017-08-30T13:32:45.761Z,35.90
2017-08-30T13:35:14.051Z,35.40
2017-08-30T13:37:42.432Z,35.40
2017-08-30T13:40:10.716Z,35.10
2017-08-30T13:42:39.168Z,34.80
2017-08-30T13:45:07.421Z,34.00
2017-08-30T13:47:35.722Z,33.60
2017-08-30T13:50:04.105Z,33.40
2017-08-30T13:52:32.364Z,32.90
2017-08-30T13:55:00.646Z,32.50
2017-08-30T13:57:28.949Z,32.50
2017-08-30T13:59:57.328Z,32.30
2017-08-30T14:02:25.589Z,32.20
2017-08-30T14:04:53.974Z,32.60
2017-08-30T14:07:22.260Z,33.50
2017-08-30T14:09:50.537Z,34.30
2017-08-30T14:12:18.811Z,35.10
2017-08-30T14:14:47.179Z,36.20
2017-08-30T14:17:15.466Z,36.10
2017-08-30T14:19:43.842Z,35.80
2017-08-30T14:22:12.227Z,35.60
2017-08-30T14:24:40.606Z,35.30
2017-08-30T14:27:08.885Z,34.90
2017-08-30T14:29:37.153Z,35.10
2017-08-30T14:32:05.525Z,35.80
2017-08-30T14:34:33.782Z,36.20
2017-08-30T14:37:02.074Z,36.10
2017-08-30T14:39:30.351Z,35.80
2017-08-30T14:41:58.632Z,35.70
2017-08-30T14:44:26.910Z,35.10
2017-08-30T14:46:55.181Z,35.70
2017-08-30T14:49:23.467Z,36.70
2017-08-30T14:51:51.854Z,37.60
2017-08-30T14:54:20.133Z,38.30
2017-08-30T14:56:48.401Z,38.60
2017-08-30T14:59:16.673Z,38.50
2017-08-30T15:01:44.942Z,38.50
2017-08-30T15:04:13.215Z,38.70
2017-08-30T15:06:41.507Z,38.70
2017-08-30T15:09:09.881Z,38.70
2017-08-30T15:11:38.169Z,38.70
2017-08-30T15:14:06.453Z,38.50
2017-08-30T15:16:34.738Z,38.80
2017-08-30T15:19:03.001Z,38.80
2017-08-30T15:21:32.061Z,38.20
2017-08-30T15:24:00.362Z,38.20
2017-08-30T15:26:28.643Z,38.50
2017-08-30T15:28:56.922Z,38.60
2017-08-30T15:31:25.303Z,38.50
2017-08-30T15:33:53.549Z,38.20
2017-08-30T15:36:21.956Z,37.90
2017-08-30T15:38:50.219Z,37.70
2017-08-30T15:41:18.512Z,37.50
2017-08-30T15:43:46.769Z,37.30
2017-08-30T15:46:15.055Z,36.90
2017-08-30T15:48:43.340Z,36.40
2017-08-30T15:51:11.621Z,36.20
2017-08-30T15:53:39.906Z,35.80
2017-08-30T15:56:08.165Z,35.10
2017-08-30T15:58:37.083Z,34.90
2017-08-30T16:01:05.430Z,35.10
2017-08-30T16:03:33.836Z,35.10
2017-08-30T16:06:02.095Z,34.80
2017-08-30T16:08:30.478Z,34.50
2017-08-30T16:10:58.742Z,34.10
2017-08-30T16:13:27.121Z,33.70
2017-08-30T16:15:55.423Z,33.20
2017-08-30T16:18:23.683Z,32.70
2017-08-30T16:20:52.084Z,32.30
2017-08-30T16:23:20.370Z,32.10
2017-08-30T16:25:48.645Z,31.80
2017-08-30T16:28:17.013Z,31.40
2017-08-30T16:30:45.407Z,31.20
2017-08-30T16:33:13.657Z,30.90
2017-08-30T16:35:42.035Z,30.70
2017-08-30T16:38:10.294Z,30.50
2017-08-30T16:40:38.591Z,30.30
2017-08-30T16:43:06.874Z,30.30
2017-08-30T16:45:35.265Z,30.10
2017-08-30T16:48:03.519Z,30.00
2017-08-30T16:50:32.006Z,30.00
2017-08-30T16:53:00.302Z,29.90
2017-08-30T16:55:29.333Z,29.70
2017-08-30T16:57:57.613Z,29.70
2017-08-30T17:00:25.883Z,29.60
2017-08-30T17:02:54.229Z,29.40
2017-08-30T17:05:22.496Z,29.20
2017-08-30T17:07:50.878Z,29.00
2017-08-30T17:10:19.155Z,28.80
2017-08-30T17:12:47.436Z,28.80
2017-08-30T17:15:15.685Z,28.70
2017-08-30T17:17:44.005Z,28.50
2017-08-30T17:20:12.464Z,28.40
2017-08-30T17:22:40.859Z,28.20
2017-08-30T17:25:09.159Z,28.10
2017-08-30T17:27:38.213Z,27.90
2017-08-30T17:30:06.489Z,27.80
2017-08-30T17:32:34.754Z,27.80
2017-08-30T17:35:03.033Z,27.70
2017-08-30T17:37:31.293Z,27.60
2017-08-30T17:39:59.608Z,27.50
2017-08-30T17:42:27.863Z,27.40
2017-08-30T17:44:56.176Z,27.20
2017-08-30T17:47:24.429Z,27.10
2017-08-30T17:49:52.732Z,26.90
2017-08-30T17:52:21.063Z,26.80
2017-08-30T17:54:49.324Z,26.80
2017-08-30T17:57:17.661Z,26.60
2017-08-30T17:59:46.018Z,26.50
2017-08-30T18:02:14.427Z,26.40
2017-08-30T18:04:42.697Z,26.30
2017-08-30T18:07:10.995Z,26.20
2017-08-30T18:09:39.268Z,26.10
2017-08-30T18:12:07.627Z,26.10
2017-08-30T18:14:35.880Z,26.00
2017-08-30T18:17:04.285Z,25.90
2017-08-30T18:19:32.634Z,25.90
2017-08-30T18:22:00.924Z,25.80
2017-08-30T18:24:29.204Z,25.80
2017-08-30T18:26:57.468Z,25.70
2017-08-30T18:29:25.862Z,25.70
2017-08-30T18:31:54.173Z,25.60
2017-08-30T18:34:23.214Z,25.50
2017-08-30T18:36:51.484Z,25.50
2017-08-30T18:39:19.789Z,25.50
2017-08-30T18:41:48.059Z,25.40
2017-08-30T18:44:16.329Z,25.40
2017-08-30T18:46:44.616Z,25.30
2017-08-30T18:49:12.893Z,25.20
2017-08-30T18:51:41.149Z,25.20
2017-08-30T18:54:10.197Z,25.20
2017-08-30T18:56:38.465Z,25.10
2017-08-30T18:59:06.777Z,25.20
2017-08-30T19:01:35.037Z,25.10
2017-08-30T19:04:03.346Z,25.10
2017-08-30T19:06:31.623Z,25.10
2017-08-30T19:08:59.893Z,25.00
2017-08-30T19:11:28.196Z,24.90
2017-08-30T19:13:56.470Z,24.90
2017-08-30T19:16:24.901Z,24.80
2017-08-30T19:18:53.315Z,24.80
2017-08-30T19:21:21.661Z,24.70
2017-08-30T19:23:49.924Z,24.60
2017-08-30T19:26:18.238Z,24.60
2017-08-30T19:28:46.573Z,24.60
2017-08-30T19:31:14.840Z,24.50
2017-08-30T19:33:43.135Z,24.50
2017-08-30T19:36:11.396Z,24.40
2017-08-30T19:38:39.703Z,24.40
2017-08-30T19:41:08.098Z,24.40
2017-08-30T19:43:37.142Z,24.30
2017-08-30T19:46:05.431Z,24.20
2017-08-30T19:48:33.679Z,24.20
2017-08-30T19:51:01.955Z,24.20
2017-08-30T19:53:30.234Z,24.20
2017-08-30T19:55:58.510Z,24.20
2017-08-30T19:58:26.786Z,24.20
2017-08-30T20:00:55.068Z,24.10
2017-08-30T20:03:23.376Z,24.20
2017-08-30T20:05:51.635Z,24.10
2017-08-30T20:08:19.949Z,24.20
2017-08-30T20:10:48.311Z,24.10
2017-08-30T20:13:16.585Z,24.20
2017-08-30T20:15:44.896Z,24.10
2017-08-30T20:18:13.171Z,24.10
2017-08-30T20:20:41.490Z,24.10
2017-08-30T20:23:09.761Z,24.00
2017-08-30T20:25:38.053Z,24.00
2017-08-30T20:28:06.313Z,24.00
2017-08-30T20:30:34.688Z,24.00
2017-08-30T20:33:02.999Z,24.00
2017-08-30T20:35:31.277Z,23.90
2017-08-30T20:37:59.545Z,23.90
2017-08-30T20:40:27.845Z,23.90
2017-08-30T20:42:56.112Z,23.90
2017-08-30T20:45:24.387Z,23.90
2017-08-30T20:47:52.706Z,23.90
2017-08-30T20:50:21.008Z,23.90
2017-08-30T20:52:49.301Z,23.90
2017-08-30T20:55:17.656Z,23.80
2017-08-30T20:57:45.949Z,23.80
2017-08-30T21:00:14.204Z,23.70
2017-08-30T21:02:42.598Z,23.70
2017-08-30T21:05:10.840Z,23.70
2017-08-30T21:07:39.143Z,23.70
2017-08-30T21:10:07.464Z,23.60
2017-08-30T21:12:36.529Z,23.60
2017-08-30T21:15:04.802Z,23.60
2017-08-30T21:17:33.196Z,23.60
2017-08-30T21:20:01.458Z,23.50
2017-08-30T21:22:29.745Z,23.50
2017-08-30T21:24:58.106Z,23.50
2017-08-30T21:27:26.491Z,23.50
2017-08-30T21:29:54.775Z,23.50
2017-08-30T21:32:23.191Z,23.50
2017-08-30T21:34:51.527Z,23.50
2017-08-30T21:37:19.786Z,23.40
2017-08-30T21:39:48.081Z,23.40
2017-08-30T21:42:16.369Z,23.40
2017-08-30T21:44:44.654Z,23.30
2017-08-30T21:47:12.917Z,23.30
2017-08-30T21:49:41.246Z,23.30
2017-08-30T21:52:09.578Z,23.30
2017-08-30T21:54:37.966Z,23.30
2017-08-30T21:57:06.223Z,23.30
2017-08-30T21:59:34.506Z,23.30
2017-08-30T22:02:02.818Z,23.30
2017-08-30T22:04:31.158Z,23.30
2017-08-30T22:06:59.440Z,23.30
2017-08-30T22:09:27.735Z,23.20
2017-08-30T22:11:56.072Z,23.20
2017-08-30T22:14:24.466Z,23.20
2017-08-30T22:16:52.892Z,23.20
2017-08-30T22:19:21.282Z,23.20
2017-08-30T22:21:49.562Z,23.20
2017-08-30T22:24:17.839Z,23.20
2017-08-30T22:26:46.097Z,23.20
2017-08-30T22:29:14.497Z,23.20
2017-08-30T22:31:42.798Z,23.20
2017-08-30T22:34:11.858Z,23.10
2017-08-30T22:36:40.095Z,23.10
2017-08-30T22:39:08.400Z,23.10
2017-08-30T22:41:36.685Z,23.10
2017-08-30T22:44:05.061Z,23.20
2017-08-30T22:46:33.336Z,23.20
2017-08-30T22:49:01.718Z,23.20
2017-08-30T22:51:29.989Z,23.10
2017-08-30T22:53:58.373Z,23.10
2017-08-30T22:56:26.629Z,23.10
2017-08-30T22:58:54.915Z,23.10
2017-08-30T23:01:23.172Z,23.10
2017-08-30T23:03:51.447Z,23.10
2017-08-30T23:06:19.722Z,23.00
2017-08-30T23:08:47.968Z,23.00
2017-08-30T23:11:16.299Z,23.10
2017-08-30T23:13:44.605Z,23.10
2017-08-30T23:16:12.884Z,23.10
2017-08-30T23:18:41.145Z,23.00
2017-08-30T23:21:09.425Z,22.90
2017-08-30T23:23:37.706Z,22.90
2017-08-30T23:26:06.010Z,22.90
2017-08-30T23:28:34.366Z,22.90
2017-08-30T23:31:02.677Z,22.80
2017-08-30T23:33:31.729Z,22.80
2017-08-30T23:36:00.019Z,22.80
2017-08-30T23:38:28.266Z,22.80
2017-08-30T23:40:56.550Z,22.80
2017-08-30T23:43:24.833Z,22.80
2017-08-30T23:45:53.141Z,22.80
2017-08-30T23:48:21.420Z,22.80
2017-08-30T23:50:49.697Z,22.70
2017-08-30T23:53:18.048Z,22.70
2017-08-30T23:55:46.339Z,22.70
2017-08-30T23:58:14.625Z,22.70
